NDR weather

Nador International Airport
Nador, Nador Province, Morocco

Public forecast

Using degrees Celsius for public forecast. Weather courtesy of forecast.io.

Current aviation weather report (METAR) for Nador International Airport

Retrieved 2019/10/19 18:00 UTC (48 minutes ago):

GMMW 191800Z 03003KT 350V050 CAVOK 22/14 Q1011 NOSIG

Aviation forecast (TAF) for Nador International Airport

Retrieved 2019/10/19 18:21 UTC (27 minutes ago):

TAF GMMW 191700Z 1918/2024 06010KT CAVOK